MST,Max TemperatureF,Mean TemperatureF,Min TemperatureF,Max Dew PointF,MeanDew PointF,Min DewpointF,Max Humidity, Mean Humidity, Min Humidity, Max Sea Level PressureIn, Mean Sea Level PressureIn, Min Sea Level PressureIn, Max VisibilityMiles, Mean VisibilityMiles, Min VisibilityMiles, Max Wind SpeedMPH, Mean Wind SpeedMPH, Max Gust SpeedMPH,PrecipitationIn, CloudCover, Events, WindDirDegrees
2012-12-1,33,29,24,,,,,,,,,,,,,,8,18,0.00,,,
2012-12-2,43,33,22,,,,,,,,,,,,,,13,23,0.04,,,
2012-12-3,43,37,31,,,,,,,,,,,,,,,17,0.00,,,
2012-12-4,33,26,18,24,23,21,85,82,78,30.01,29.95,29.88,10,10,10,24,14,29,0.00,0,,110
2012-12-5,51,42,32,37,27,20,82,65,48,29.96,29.77,29.60,10,10,10,26,13,36,T,0,,328
2012-12-6,37,29,21,22,20,18,81,67,52,30.06,30.01,29.95,10,10,10,25,4,32,0.00,1,,263
2012-12-7,22,18,14,20,17,12,100,87,74,30.00,29.87,29.70,10,5,0,20,12,24,0.05,7,Fog-Snow,105
2012-12-8,22,13,4,20,11,1,92,83,73,30.46,29.91,29.63,10,4,0,23,12,26,0.12,7,Fog-Snow,34
2012-12-9,17,10,3,10,4,0,88,81,73,30.53,30.30,29.88,10,9,5,14,5,15,T,5,Snow,189
2012-12-10,32,23,14,24,19,11,92,81,69,29.92,29.86,29.68,10,10,10,20,8,24,0.00,7,,288
2012-12-11,33,24,14,26,20,12,92,85,78,29.88,29.64,29.47,10,9,1,17,7,22,0.02,7,Snow,130
2012-12-12,30,26,22,26,22,19,96,90,84,29.97,29.78,29.57,10,8,1,15,7,18,0.02,6,Snow,92
2012-12-13,26,21,16,25,19,14,100,92,84,30.00,29.87,29.73,10,3,0,15,10,17,T,8,Fog-Snow,111
2012-12-14,26,16,6,25,12,3,100,92,83,29.84,29.76,29.65,10,3,0,14,3,15,0.00,5,Fog,91
2012-12-15,19,12,4,16,8,2,100,90,80,29.93,29.83,29.69,10,4,0,13,6,15,0.00,6,Fog-Snow,90
2012-12-16,19,13,6,17,10,3,92,88,83,29.81,29.68,29.59,10,2,0,18,10,22,0.00,6,Fog-Snow,115
2012-12-17,24,15,5,21,11,1,92,87,81,29.70,29.53,29.43,10,8,0,17,11,21,0.00,4,Fog-Snow,106
2012-12-18,30,21,12,28,17,6,92,80,67,29.90,29.62,29.44,10,5,0,26,14,32,0.13,7,Fog-Snow,289
2012-12-19,15,8,1,12,6,-1,92,83,73,30.17,30.02,29.78,10,7,1,16,8,21,T,3,Snow,302
2012-12-20,20,10,-1,11,6,-4,95,81,67,30.14,30.09,30.02,10,10,8,17,10,20,0.00,0,,107
2012-12-21,26,17,8,15,9,4,84,72,60,30.22,30.09,30.01,10,10,9,14,4,15,0.00,1,,354
2012-12-22,12,9,5,6,2,0,88,78,67,30.32,30.22,30.03,10,10,10,17,7,22,0.00,5,,91
2012-12-23,9,-1,-11,3,0,-14,95,84,73,30.28,30.13,29.98,10,7,0,18,7,22,0.04,6,Fog-Snow,49
2012-12-24,6,-2,-11,2,-4,-14,92,84,75,30.58,30.36,30.09,10,5,1,12,4,13,0.02,7,Snow,315
2012-12-25,5,-3,-11,-4,-7,-15,92,80,68,30.58,30.43,30.15,10,6,1,14,5,15,0.03,6,Snow,330
2012-12-26,3,-4,-12,-2,-8,-17,90,84,78,30.31,30.15,29.94,10,9,1,16,9,18,T,4,Snow,104
2012-12-27,8,1,-6,1,-1,-8,95,86,76,30.16,30.08,29.95,10,7,2,12,3,14,T,7,Snow,122
2012-12-28,12,4,-4,3,0,-7,100,87,73,30.17,30.11,29.93,10,9,6,7,2,8,0.00,5,,283
2012-12-29,22,14,5,12,8,2,88,78,67,30.14,30.09,30.05,10,10,10,9,3,12,0.00,1,,298
2012-12-30,23,16,8,20,16,6,96,87,77,30.18,30.10,29.97,10,6,2,12,5,13,0.01,8,Snow,299
2012-12-31,20,15,9,18,15,6,100,92,84,30.19,30.07,29.99,10,4,0,13,4,15,0.01,8,Fog-Snow,128